createdAt,value
2022-08-01T00:00:47.994Z,9.45
2022-08-01T00:03:15.203Z,10.35
2022-08-01T00:05:44.385Z,8.52
2022-08-01T00:08:11.574Z,8.88
2022-08-01T00:10:38.756Z,8.75
2022-08-01T00:13:05.999Z,10.68
2022-08-01T00:15:33.351Z,7.85
2022-08-01T00:18:00.559Z,8.48
2022-08-01T00:20:27.936Z,10.15
2022-08-01T00:22:55.215Z,8.98
2022-08-01T00:25:22.424Z,11.13
2022-08-01T00:28:02.454Z,10.02
2022-08-01T00:30:32.000Z,11.63
2022-08-01T00:32:59.345Z,8.88
2022-08-01T00:35:26.560Z,7.13
2022-08-01T00:37:53.819Z,7.70
2022-08-01T00:40:21.180Z,6.93
2022-08-01T00:42:48.428Z,10.02
2022-08-01T00:45:15.644Z,9.50
2022-08-01T00:47:42.902Z,7.65
2022-08-01T00:50:10.757Z,7.30
2022-08-01T00:52:39.787Z,5.80
2022-08-01T00:55:07.583Z,7.75
2022-08-01T00:58:04.905Z,7.32
2022-08-01T01:00:27.336Z,7.45
2022-08-01T01:02:55.065Z,7.07
2022-08-01T01:05:22.359Z,7.80
2022-08-01T01:08:00.257Z,7.20
2022-08-01T01:10:37.385Z,5.72
2022-08-01T01:13:13.811Z,7.40
2022-08-01T01:15:46.360Z,5.85
2022-08-01T01:18:19.982Z,4.85
2022-08-01T01:21:07.530Z,5.40
2022-08-01T01:24:11.870Z,4.60
2022-08-01T01:27:13.594Z,5.13
2022-08-01T01:30:00.420Z,5.13
2022-08-01T01:32:42.668Z,5.30
2022-08-01T01:35:21.490Z,5.63
2022-08-01T01:37:52.119Z,8.25
2022-08-01T01:40:20.858Z,10.10
2022-08-01T01:42:49.721Z,6.50
2022-08-01T01:45:17.998Z,7.13
2022-08-01T01:47:46.126Z,9.60
2022-08-01T01:50:15.937Z,6.00
2022-08-01T01:52:44.762Z,6.97
2022-08-01T01:55:14.390Z,7.68
2022-08-01T01:57:43.249Z,8.88
2022-08-01T02:00:12.611Z,7.85
2022-08-01T02:02:41.486Z,8.30
2022-08-01T02:05:11.333Z,8.53
2022-08-01T02:07:40.402Z,11.43
2022-08-01T02:10:09.689Z,7.72
2022-08-01T02:12:40.193Z,9.35
2022-08-01T02:15:10.241Z,11.98
2022-08-01T02:17:44.802Z,10.43
2022-08-01T02:20:12.892Z,9.95
2022-08-01T02:23:08.953Z,9.57
2022-08-01T02:26:10.843Z,12.93
2022-08-01T02:28:53.879Z,10.23
2022-08-01T02:31:23.521Z,10.80
2022-08-01T02:34:03.212Z,10.35
2022-08-01T02:36:33.702Z,7.35
2022-08-01T02:39:11.736Z,10.20
2022-08-01T02:41:42.815Z,7.93
2022-08-01T02:44:16.104Z,8.27
2022-08-01T02:46:52.878Z,6.03
2022-08-01T02:49:22.760Z,7.53
2022-08-01T02:51:52.182Z,8.70
2022-08-01T02:54:22.303Z,8.65
2022-08-01T02:56:51.107Z,6.85
2022-08-01T02:59:22.109Z,4.30
2022-08-01T03:01:52.668Z,5.90
2022-08-01T03:04:24.526Z,4.00
2022-08-01T03:06:59.236Z,4.60
2022-08-01T03:09:28.288Z,4.00
2022-08-01T03:11:59.878Z,3.90
2022-08-01T03:14:28.909Z,5.40
2022-08-01T03:16:57.683Z,4.50
2022-08-01T03:19:27.456Z,4.43
2022-08-01T03:21:56.697Z,4.57
2022-08-01T03:24:25.746Z,4.47
2022-08-01T03:26:54.570Z,4.95
2022-08-01T03:29:25.672Z,4.72
2022-08-01T03:31:53.465Z,4.82
2022-08-01T03:34:23.455Z,4.32
2022-08-01T03:37:00.502Z,5.35
2022-08-01T03:39:51.636Z,4.93
2022-08-01T03:42:25.459Z,3.97
2022-08-01T03:44:59.090Z,3.95
2022-08-01T03:47:34.325Z,4.13
2022-08-01T03:50:12.438Z,4.33
2022-08-01T03:52:41.452Z,4.40
2022-08-01T03:55:10.760Z,5.87
2022-08-01T03:57:38.723Z,5.05
2022-08-01T04:00:09.798Z,5.93
2022-08-01T04:02:40.678Z,5.07
2022-08-01T04:05:08.507Z,3.95
2022-08-01T04:07:40.219Z,5.88
2022-08-01T04:10:07.846Z,5.60
2022-08-01T04:12:35.671Z,7.13
2022-08-01T04:15:03.665Z,5.07
2022-08-01T04:17:30.865Z,6.53
2022-08-01T04:19:58.162Z,5.95
2022-08-01T04:22:25.470Z,6.72
2022-08-01T04:24:57.343Z,7.80
2022-08-01T04:27:50.355Z,5.97
2022-08-01T04:30:22.218Z,7.82
2022-08-01T04:32:51.278Z,9.98
2022-08-01T04:35:23.171Z,8.52
2022-08-01T04:38:11.075Z,10.55
2022-08-01T04:40:39.630Z,7.28
2022-08-01T04:43:07.355Z,9.48
2022-08-01T04:45:36.297Z,12.40
2022-08-01T04:48:07.455Z,7.77
2022-08-01T04:50:37.049Z,11.60
2022-08-01T04:53:05.031Z,11.75
2022-08-01T04:55:32.313Z,10.73
2022-08-01T04:57:59.518Z,12.73
2022-08-01T05:00:29.391Z,15.00
2022-08-01T05:02:58.111Z,13.17
2022-08-01T05:05:27.140Z,14.48
2022-08-01T05:07:54.349Z,15.40
2022-08-01T05:10:21.538Z,13.15
2022-08-01T05:12:48.759Z,14.45
2022-08-01T05:15:17.230Z,14.63
2022-08-01T05:17:44.432Z,14.13
2022-08-01T05:20:12.874Z,13.38
2022-08-01T05:22:40.325Z,12.25
2022-08-01T05:25:08.136Z,14.50
2022-08-01T05:27:40.325Z,13.05
2022-08-01T05:30:09.387Z,12.82
2022-08-01T05:32:37.065Z,12.43
2022-08-01T05:35:04.664Z,16.23
2022-08-01T05:37:32.027Z,11.23
2022-08-01T05:39:59.206Z,16.70
2022-08-01T05:42:26.573Z,13.07
2022-08-01T05:44:53.764Z,17.25
2022-08-01T05:47:20.922Z,14.13
2022-08-01T05:49:48.160Z,13.03
2022-08-01T05:52:15.417Z,13.20
2022-08-01T05:54:42.666Z,16.03
2022-08-01T05:57:09.867Z,14.87
2022-08-01T05:59:38.355Z,14.43
2022-08-01T06:02:05.986Z,15.57
2022-08-01T06:04:33.357Z,16.58
2022-08-01T06:07:00.529Z,12.90
2022-08-01T06:09:28.123Z,12.23
2022-08-01T06:11:55.328Z,12.67
2022-08-01T06:14:22.593Z,15.90
2022-08-01T06:16:49.782Z,14.10
2022-08-01T06:19:17.030Z,16.55
2022-08-01T06:21:44.200Z,16.77
2022-08-01T06:24:11.430Z,17.20
2022-08-01T06:26:38.650Z,11.25
2022-08-01T06:29:05.874Z,12.68
2022-08-01T06:31:33.866Z,16.05
2022-08-01T06:34:01.369Z,12.88
2022-08-01T06:36:31.542Z,12.65
2022-08-01T06:38:58.715Z,11.00
2022-08-01T06:41:25.940Z,12.35
2022-08-01T06:43:53.189Z,11.35
2022-08-01T06:46:20.389Z,12.13
2022-08-01T06:48:47.584Z,12.45
2022-08-01T06:51:17.704Z,12.65
2022-08-01T06:53:45.024Z,11.23
2022-08-01T06:56:12.522Z,9.73
2022-08-01T06:58:42.823Z,11.10
2022-08-01T07:01:10.102Z,11.27
2022-08-01T07:03:53.320Z,11.13
2022-08-01T07:06:23.781Z,13.07
2022-08-01T07:08:51.187Z,13.00
2022-08-01T07:11:18.480Z,12.57
2022-08-01T07:13:46.743Z,10.68
2022-08-01T07:16:15.278Z,14.57
2022-08-01T07:18:42.719Z,11.98
2022-08-01T07:21:16.435Z,12.90
2022-08-01T07:23:57.336Z,11.50
2022-08-01T07:26:24.514Z,10.43
2022-08-01T07:28:51.681Z,13.00
2022-08-01T07:31:18.892Z,14.55
2022-08-01T07:33:47.609Z,10.75
2022-08-01T07:36:17.417Z,12.52
2022-08-01T07:38:45.436Z,11.52
2022-08-01T07:41:12.675Z,9.53
2022-08-01T07:43:39.852Z,10.90
2022-08-01T07:46:07.288Z,13.05
2022-08-01T07:48:34.749Z,11.10
2022-08-01T07:51:02.013Z,13.32
2022-08-01T07:53:30.096Z,11.40
2022-08-01T07:55:57.294Z,14.02
2022-08-01T07:58:24.537Z,12.63
2022-08-01T08:00:51.711Z,11.93
2022-08-01T08:03:18.905Z,14.13
2022-08-01T08:05:58.972Z,12.87
2022-08-01T08:08:27.605Z,10.47
2022-08-01T08:10:54.867Z,11.52
2022-08-01T08:13:22.245Z,11.07
2022-08-01T08:15:49.519Z,10.75
2022-08-01T08:18:17.110Z,10.30
2022-08-01T08:20:46.790Z,9.13
2022-08-01T08:23:43.080Z,9.52
2022-08-01T08:26:12.001Z,10.60
2022-08-01T08:28:41.270Z,8.85
2022-08-01T08:31:25.457Z,11.00
2022-08-01T08:33:56.379Z,10.97
2022-08-01T08:36:28.595Z,11.03
2022-08-01T08:39:01.617Z,8.95
2022-08-01T08:41:38.009Z,9.98
2022-08-01T08:44:10.211Z,13.15
2022-08-01T08:46:48.948Z,10.85
2022-08-01T08:49:25.605Z,10.15
2022-08-01T08:51:54.927Z,12.32
2022-08-01T08:54:29.042Z,11.30
2022-08-01T08:57:00.591Z,9.65
2022-08-01T08:59:29.103Z,8.85
2022-08-01T09:01:57.604Z,9.60
2022-08-01T09:04:26.997Z,9.68
2022-08-01T09:06:55.141Z,13.18
2022-08-01T09:09:23.733Z,10.93
2022-08-01T09:11:57.696Z,10.00
2022-08-01T09:14:30.802Z,10.05
2022-08-01T09:17:08.515Z,8.93
2022-08-01T09:19:44.156Z,9.82
2022-08-01T09:22:19.441Z,9.57
2022-08-01T09:25:10.139Z,9.60
2022-08-01T09:27:44.164Z,9.82
2022-08-01T09:30:25.945Z,10.25
2022-08-01T09:33:01.752Z,12.65
2022-08-01T09:35:43.958Z,10.73
2022-08-01T09:38:19.911Z,10.38
2022-08-01T09:40:49.457Z,11.30
2022-08-01T09:43:17.374Z,9.23
2022-08-01T09:45:45.594Z,10.23
2022-08-01T09:48:13.503Z,7.65
2022-08-01T09:50:49.052Z,10.63
2022-08-01T09:53:29.805Z,9.98
2022-08-01T09:56:10.530Z,9.48
2022-08-01T09:58:59.491Z,8.48
2022-08-01T10:01:37.119Z,8.37
2022-08-01T10:04:07.039Z,9.52
2022-08-01T10:06:38.109Z,9.13
2022-08-01T10:09:05.795Z,9.10
2022-08-01T10:11:36.213Z,8.15
2022-08-01T10:14:04.555Z,7.18
2022-08-01T10:16:34.538Z,7.97
2022-08-01T10:19:14.516Z,7.55
2022-08-01T10:21:58.527Z,6.53
2022-08-01T10:24:30.614Z,7.97
2022-08-01T10:27:05.956Z,7.97
2022-08-01T10:29:45.612Z,8.85
2022-08-01T10:32:14.730Z,8.30
2022-08-01T10:34:44.914Z,7.00
2022-08-01T10:37:14.307Z,8.38
2022-08-01T10:39:43.572Z,7.65
2022-08-01T10:42:15.896Z,7.18
2022-08-01T10:44:47.071Z,8.50
2022-08-01T10:47:50.631Z,9.83
2022-08-01T10:50:26.218Z,7.45
2022-08-01T10:53:16.584Z,8.45
2022-08-01T10:56:01.457Z,7.55
2022-08-01T10:58:42.302Z,8.60
2022-08-01T11:01:27.680Z,7.30
2022-08-01T11:04:07.116Z,9.10
2022-08-01T11:06:34.276Z,8.00
2022-08-01T11:09:22.125Z,8.17
2022-08-01T11:12:01.228Z,8.30
2022-08-01T11:14:53.464Z,8.00
2022-08-01T11:17:37.967Z,8.85
2022-08-01T11:20:10.959Z,9.00
2022-08-01T11:23:04.961Z,11.73
2022-08-01T11:26:04.505Z,7.30
2022-08-01T11:28:32.426Z,7.53
2022-08-01T11:31:11.150Z,8.60
2022-08-01T11:33:41.027Z,8.18
2022-08-01T11:36:11.042Z,7.20
2022-08-01T11:38:40.566Z,6.75
2022-08-01T11:41:14.735Z,8.30
2022-08-01T11:44:08.859Z,6.63
2022-08-01T11:46:49.647Z,7.25
2022-08-01T11:49:30.041Z,7.57
2022-08-01T11:52:06.681Z,9.70
2022-08-01T11:54:37.429Z,9.80
2022-08-01T11:57:07.896Z,7.35
2022-08-01T12:00:02.521Z,7.88
2022-08-01T12:02:39.455Z,8.70
2022-08-01T12:05:12.823Z,6.80
2022-08-01T12:07:42.923Z,7.70
2022-08-01T12:10:13.009Z,8.90
2022-08-01T12:12:50.973Z,7.70
2022-08-01T12:15:19.229Z,8.52
2022-08-01T12:17:58.320Z,7.95
2022-08-01T12:20:32.366Z,9.75
2022-08-01T12:23:02.896Z,8.88
2022-08-01T12:25:30.477Z,8.27
2022-08-01T12:28:02.561Z,6.68
2022-08-01T12:30:31.903Z,7.50
2022-08-01T12:32:59.484Z,8.27
2022-08-01T12:35:28.489Z,8.95
2022-08-01T12:38:02.114Z,6.73
2022-08-01T12:40:32.773Z,7.93
2022-08-01T12:43:06.695Z,7.78
2022-08-01T12:45:56.775Z,8.48
2022-08-01T12:48:25.330Z,8.80
2022-08-01T12:50:53.983Z,8.23
2022-08-01T12:53:22.529Z,8.70
2022-08-01T12:55:59.533Z,7.93
2022-08-01T12:58:34.833Z,8.40
2022-08-01T13:01:08.270Z,10.00
2022-08-01T13:03:36.025Z,7.78
2022-08-01T13:06:12.197Z,6.60
2022-08-01T13:08:39.547Z,8.50
2022-08-01T13:11:15.847Z,7.50
2022-08-01T13:13:48.330Z,10.10
2022-08-01T13:16:30.592Z,8.57
2022-08-01T13:19:01.913Z,7.13
2022-08-01T13:21:53.117Z,7.43
2022-08-01T13:24:30.274Z,7.63
2022-08-01T13:27:01.030Z,7.25
2022-08-01T13:29:42.217Z,8.30
2022-08-01T13:32:28.790Z,7.50
2022-08-01T13:35:09.216Z,6.85
2022-08-01T13:37:38.547Z,6.60
2022-08-01T13:40:08.339Z,7.47
2022-08-01T13:42:35.806Z,8.90
2022-08-01T13:45:13.766Z,7.85
2022-08-01T13:47:44.809Z,8.82
2022-08-01T13:50:29.401Z,8.93
2022-08-01T13:52:56.552Z,10.48
2022-08-01T13:55:23.721Z,6.75
2022-08-01T13:57:51.104Z,9.00
2022-08-01T14:00:18.343Z,9.63
2022-08-01T14:02:45.553Z,7.55
2022-08-01T14:05:12.810Z,8.15
2022-08-01T14:07:41.375Z,7.88
2022-08-01T14:10:18.514Z,8.80
2022-08-01T14:12:50.458Z,9.18
2022-08-01T14:15:36.467Z,8.32
2022-08-01T14:18:06.588Z,7.60
2022-08-01T14:20:35.527Z,8.73
2022-08-01T14:23:02.771Z,7.00
2022-08-01T14:26:00.497Z,7.38
2022-08-01T14:28:17.693Z,6.15
2022-08-01T14:30:45.004Z,7.23
2022-08-01T14:33:13.204Z,7.97
2022-08-01T14:35:46.514Z,6.22
2022-08-01T14:38:31.112Z,7.40
2022-08-01T14:41:00.150Z,6.47
2022-08-01T14:43:32.812Z,8.02
2022-08-01T14:46:02.053Z,8.43
2022-08-01T14:48:30.300Z,7.65
2022-08-01T14:50:59.907Z,7.40
2022-08-01T14:53:27.059Z,6.68
2022-08-01T14:55:54.263Z,8.25
2022-08-01T14:58:23.856Z,7.20
2022-08-01T15:00:58.627Z,9.07
2022-08-01T15:03:26.798Z,8.18
2022-08-01T15:05:54.048Z,6.00
2022-08-01T15:08:21.231Z,8.77
2022-08-01T15:10:48.447Z,8.67
2022-08-01T15:13:15.674Z,7.97
2022-08-01T15:15:42.880Z,6.97
2022-08-01T15:18:10.073Z,7.43
2022-08-01T15:20:37.263Z,8.67
2022-08-01T15:23:04.979Z,6.80
2022-08-01T15:25:41.942Z,8.52
2022-08-01T15:28:10.906Z,7.32
2022-08-01T15:30:38.687Z,7.90
2022-08-01T15:33:06.176Z,8.05
2022-08-01T15:35:36.053Z,8.43
2022-08-01T15:38:03.302Z,7.35
2022-08-01T15:40:33.883Z,7.10
2022-08-01T15:43:01.442Z,7.47
2022-08-01T15:48:17.917Z,6.75
2022-08-01T15:50:46.490Z,7.93
2022-08-01T15:53:13.709Z,8.18
2022-08-01T15:55:41.129Z,7.00
2022-08-01T15:58:11.767Z,8.45
2022-08-01T16:00:40.127Z,8.57
2022-08-01T16:03:10.746Z,8.10
2022-08-01T16:05:43.549Z,6.55
2022-08-01T16:08:12.723Z,7.20
2022-08-01T16:10:40.228Z,6.10
2022-08-01T16:13:08.075Z,7.05
2022-08-01T16:15:39.231Z,7.97
2022-08-01T16:18:13.205Z,7.50
2022-08-01T16:20:45.447Z,7.38
2022-08-01T16:23:14.733Z,6.77
2022-08-01T16:25:42.296Z,7.35
2022-08-01T16:28:09.806Z,6.00
2022-08-01T16:30:37.882Z,7.93
2022-08-01T16:33:38.811Z,6.65
2022-08-01T16:36:02.439Z,8.02
2022-08-01T16:38:30.197Z,6.88
2022-08-01T16:40:57.394Z,7.63
2022-08-01T16:43:24.938Z,7.85
2022-08-01T16:45:52.178Z,9.00
2022-08-01T16:48:19.690Z,6.18
2022-08-01T16:50:49.293Z,6.70
2022-08-01T16:53:20.542Z,5.57
2022-08-01T16:55:50.304Z,7.43
2022-08-01T16:58:27.260Z,5.75
2022-08-01T17:00:57.468Z,5.18
2022-08-01T17:03:51.807Z,6.95
2022-08-01T17:06:13.568Z,6.60
2022-08-01T17:08:46.539Z,7.60
2022-08-01T17:11:16.581Z,6.47
2022-08-01T17:13:44.307Z,6.05
2022-08-01T17:16:11.938Z,6.43
2022-08-01T17:18:39.175Z,4.80
2022-08-01T17:21:06.622Z,9.77
2022-08-01T17:23:34.996Z,5.20
2022-08-01T17:26:02.216Z,6.03
2022-08-01T17:28:29.519Z,9.50
2022-08-01T17:30:56.907Z,6.07
2022-08-01T17:33:24.209Z,7.60
2022-08-01T17:36:11.413Z,4.93
2022-08-01T17:38:38.624Z,4.80
2022-08-01T17:41:06.433Z,6.63
2022-08-01T17:43:36.786Z,6.05
2022-08-01T17:46:04.011Z,5.32
2022-08-01T17:48:31.245Z,5.22
2022-08-01T17:50:58.477Z,5.07
2022-08-01T17:53:25.835Z,6.55
2022-08-01T17:55:57.259Z,8.73
2022-08-01T17:58:49.583Z,6.72
2022-08-01T18:01:14.837Z,5.18
2022-08-01T18:03:42.255Z,5.97
2022-08-01T18:06:11.110Z,6.78
2022-08-01T18:08:40.368Z,4.35
2022-08-01T18:11:07.901Z,4.80
2022-08-01T18:13:35.106Z,5.93
2022-08-01T18:16:06.219Z,5.38
2022-08-01T18:18:34.185Z,5.00
2022-08-01T18:21:02.562Z,5.77
2022-08-01T18:23:29.776Z,4.40
2022-08-01T18:25:58.210Z,5.67
2022-08-01T18:28:33.740Z,6.90
2022-08-01T18:31:02.503Z,3.93
2022-08-01T18:33:29.773Z,4.50
2022-08-01T18:36:01.763Z,6.77
2022-08-01T18:38:32.908Z,5.73
2022-08-01T18:41:01.117Z,6.05
2022-08-01T18:43:30.526Z,4.63
2022-08-01T18:45:57.785Z,3.72
2022-08-01T18:48:24.986Z,6.10
2022-08-01T18:50:53.814Z,5.53
2022-08-01T18:53:23.660Z,4.82
2022-08-01T18:55:51.147Z,4.63
2022-08-01T18:58:18.615Z,5.28
2022-08-01T19:00:45.802Z,4.45
2022-08-01T19:03:13.716Z,4.60
2022-08-01T19:05:41.470Z,5.80
2022-08-01T19:08:11.711Z,4.43
2022-08-01T19:10:39.776Z,5.30
2022-08-01T19:13:08.179Z,3.75
2022-08-01T19:15:36.129Z,4.70
2022-08-01T19:18:04.210Z,4.70
2022-08-01T19:20:31.761Z,6.07
2022-08-01T19:22:59.104Z,7.18
2022-08-01T19:25:26.905Z,4.78
2022-08-01T19:27:58.259Z,5.38
2022-08-01T19:30:25.880Z,5.40
2022-08-01T19:32:55.970Z,5.38
2022-08-01T19:35:25.240Z,5.28
2022-08-01T19:37:54.290Z,4.90
2022-08-01T19:40:27.172Z,7.13
2022-08-01T19:43:00.905Z,5.30
2022-08-01T19:45:29.457Z,4.50
2022-08-01T19:47:57.978Z,5.78
2022-08-01T19:50:32.660Z,4.93
2022-08-01T19:53:05.100Z,4.53
2022-08-01T19:55:39.591Z,5.70
2022-08-01T19:58:26.434Z,6.93
2022-08-01T20:00:55.143Z,5.38
2022-08-01T20:03:23.107Z,5.82
2022-08-01T20:05:53.783Z,4.95
2022-08-01T20:08:21.750Z,5.43
2022-08-01T20:10:49.073Z,5.10
2022-08-01T20:13:20.767Z,6.57
2022-08-01T20:15:48.571Z,6.95
2022-08-01T20:18:15.754Z,4.85
2022-08-01T20:20:47.074Z,4.10
2022-08-01T20:23:18.160Z,4.80
2022-08-01T20:25:51.205Z,5.07
2022-08-01T20:28:23.751Z,4.78
2022-08-01T20:30:55.224Z,5.27
2022-08-01T20:33:22.717Z,4.03
2022-08-01T20:35:53.973Z,6.22
2022-08-01T20:38:28.786Z,5.35
2022-08-01T20:40:59.588Z,5.67
2022-08-01T20:43:27.509Z,6.05
2022-08-01T20:45:55.939Z,5.85
2022-08-01T20:48:25.431Z,5.93
2022-08-01T20:51:11.441Z,5.43
2022-08-01T20:53:42.706Z,5.82
2022-08-01T20:56:21.915Z,4.80
2022-08-01T20:59:09.696Z,3.30
2022-08-01T21:02:06.475Z,5.78
2022-08-01T21:04:57.507Z,8.10
2022-08-01T21:07:37.456Z,6.28
2022-08-01T21:10:15.153Z,6.30
2022-08-01T21:12:53.723Z,7.13
2022-08-01T21:16:22.185Z,6.55
2022-08-01T21:18:37.946Z,4.07
2022-08-01T21:21:10.311Z,6.20
2022-08-01T21:23:45.569Z,5.05
2022-08-01T21:26:13.633Z,4.03
2022-08-01T21:28:53.851Z,5.38
2022-08-01T21:31:23.044Z,3.75
2022-08-01T21:34:02.832Z,5.18
2022-08-01T21:36:32.198Z,4.75
2022-08-01T21:39:00.738Z,6.03
2022-08-01T21:41:56.813Z,5.18
2022-08-01T21:44:19.775Z,6.67
2022-08-01T21:46:48.415Z,6.57
2022-08-01T21:49:15.779Z,6.05
2022-08-01T21:51:47.609Z,5.47
2022-08-01T21:54:29.506Z,6.40
2022-08-01T21:57:06.455Z,4.75
2022-08-01T21:59:42.246Z,6.88
2022-08-01T22:02:20.941Z,5.70
2022-08-01T22:05:05.759Z,5.55
2022-08-01T22:07:36.655Z,4.50
2022-08-01T22:10:05.957Z,4.70
2022-08-01T22:12:35.357Z,9.10
2022-08-01T22:15:05.798Z,5.03
2022-08-01T22:17:33.462Z,7.72
2022-08-01T22:20:01.157Z,4.78
2022-08-01T22:22:51.455Z,4.90
2022-08-01T22:25:18.231Z,5.53
2022-08-01T22:28:03.097Z,5.80
2022-08-01T22:30:35.209Z,5.40
2022-08-01T22:33:07.873Z,4.13
2022-08-01T22:35:49.069Z,4.15
2022-08-01T22:38:20.954Z,5.32
2022-08-01T22:40:51.625Z,4.40
2022-08-01T22:43:41.617Z,5.45
2022-08-01T22:46:29.826Z,7.30
2022-08-01T22:49:09.539Z,4.63
2022-08-01T22:51:54.579Z,4.75
2022-08-01T22:54:34.047Z,5.18
2022-08-01T22:57:07.558Z,6.78
2022-08-01T22:59:59.972Z,6.05
2022-08-01T23:02:30.680Z,4.88
2022-08-01T23:05:03.377Z,5.30
2022-08-01T23:07:38.698Z,4.53
2022-08-01T23:10:07.612Z,4.90
2022-08-01T23:12:34.899Z,4.88
2022-08-01T23:15:02.342Z,5.07
2022-08-01T23:17:31.594Z,5.95
2022-08-01T23:20:06.709Z,5.40
2022-08-01T23:22:36.355Z,6.03
2022-08-01T23:25:11.945Z,5.60
2022-08-01T23:27:51.860Z,6.57
2022-08-01T23:30:32.142Z,6.30
2022-08-01T23:33:00.047Z,4.55
2022-08-01T23:35:27.797Z,5.30
2022-08-01T23:38:01.913Z,5.35
2022-08-01T23:40:32.485Z,5.13
2022-08-01T23:43:00.958Z,5.38
2022-08-01T23:45:28.393Z,5.88
2022-08-01T23:48:15.691Z,5.10
2022-08-01T23:50:42.982Z,4.85
2022-08-01T23:53:10.277Z,6.10
2022-08-01T23:55:38.318Z,7.25
2022-08-01T23:58:06.606Z,7.75
